Daphne, AL

5:09 AM CDT on September 16, 2014 (GMT -0500)
Edwards | Change Station
CLOSE
Current Station
Airport
Location: Gulf Shores,
Elevation: 16 ft
Nearby Weather Stations

Elev 16 ft 30.29 °N, 87.67 °W | Updated 14 minutes ago

Clear
Clear
75 °F
Feels Like 75 °F
N
0
Wind Variable Wind from North

Today
High -- | Low -- °F
--% Chance of Precip.
Yesterday
High -- | Low -- °F
Precip. -- in
6:36 AM 6:55 PM
Waning Gibbous, 47% visible
Pressure 30.04 in
Visibility 10.0 miles
Clouds Scattered Clouds 2100 ft
Scattered Clouds 2700 ft
Scattered Clouds 4100 ft
Dew Point 74 °F
Humidity 98%
Rainfall 0.00 in
Snow Depth Not available.
UV 0 out of 12
Pollen 9.00 out of 12
Air Quality Not available.
Flu Activity Not available.
METAR KJKA 160955Z AUTO 00000KT 10SM VCTS SCT021 SCT027 SCT041 24/24 A3004 RMK AO2 LTG DSNT E THRU SW T02390235

More Conditions Fewer Conditions

Pressure 30.04 in
Visibility 10.0 miles
Clouds Scattered Clouds 2100 ft
Scattered Clouds 2700 ft
Scattered Clouds 4100 ft
Dew Point 74 °F
Humidity 98%
Rainfall 0.00 in
Snow Depth Not available.
UV 0 out of 12
Pollen 9.00 out of 12
Air Quality Not available.
Flu Activity Not available.
METAR KJKA 160955Z AUTO 00000KT 10SM VCTS SCT021 SCT027 SCT041 24/24 A3004 RMK AO2 LTG DSNT E THRU SW T02390235

More Conditions Fewer Conditions

10-Day Weather Forecast

Almanac

Astronomy

Sep. 16, 2014 Rise Set
Actual Time 6:36 AM CDT 6:55 PM CDT
Civil Twilight 6:12 AM CDT 7:19 PM CDT
Nautical Twilight 5:44 AM CDT 7:48 PM CDT
Astronomical Twilight 5:15 AM CDT 8:16 PM CDT
Moon 12:03 AM CDT 2:01 PM CDT
Length of Visible Light 13h 07m
Length of Day
12h 19m
Tomorrow will be 1m 50s shorter.
Waning Gibbous, 47% of the Moon is Illuminated
Today
Waning Gibbous
Sep 24
New
Oct 1
First Quarter
Oct 8
Full
Oct 15
Last Quarter

Today's Extremes

State Highs State Lows

Community

WunderPhotos

Upload Photos

1,753,717 photos uploaded!

WunderBlogs® & News

Nearby

Snow Depth

Station Depth Elevation
No new snow has been reported.

Earthquake Activity

City Distance Mag. Time & Date
No recent earthquake activity has been reported nearby.
Minimum magnitude displayed is 2.5.

Coastal Water Temperatures

Place Temperature
Mobile State Docks, AL 87.1 °F
Coast Guard Sector Mobile, AL 88.0 °F

Nearby Weather Stations